Inverness, Illinois
Current Conditions -  °F | °C
As of 10:52 AM on Thursday 30 Oct 2014 (Local Time) from KPWK Reporting Station
Clear Clear  
Wind Chill: 44°   Ceiling: Unl
Heat Index: 47°   Visibility: 10mi
Dew Point: 34°   Wind: 7mph
Humidity: 61%   Direction: 240°WSW
Pressure: 30.13"   Gusts: NA
Location:  42.1096°N, 88.0556°W
Report Text: KPWK 301552Z 24006KT 10SM CLR 08/01 A3013 RMK AO2 SLP208 T00830011
Loading
Personal Weather Stations






























Interactive Weather Map
Tropical Storm Tracking
New forecast layout! Learn more

10-Day Weather Forecast

Advertisements
Track Severe Weather on mobile